Time;durP1;ratioP1;P1;durP2;ratioP2;P2;SDS_P1;SDS_P2;PMS_P1;PMS_P2;Temp;Humidity;BMP_temperature;BMP_pressure;BME280_temperature;BME280_humidity;BME280_pressure;Samples;Min_cycle;Max_cycle;Signal;HPM_P1;HPM_P2
2023/02/22 00:00:41;;;;;;;16.85;10.85;;;;;;;10.15;100.00;98660.81;5038886;28;20032;-63
2023/02/22 00:03:31;;;;;;;19.85;11.18;;;;;;;10.16;100.00;98659.84;5021916;28;20025;-63
2023/02/22 00:06:04;;;;;;;18.65;12.52;;;;;;;10.07;100.00;98655.50;5038053;28;20048;-63
2023/02/22 00:08:35;;;;;;;15.65;10.40;;;;;;;10.06;100.00;98661.63;5037524;28;20025;-63
2023/02/22 00:11:03;;;;;;;18.80;11.00;;;;;;;10.11;100.00;98665.47;5041652;28;20063;-63
2023/02/22 00:13:29;;;;;;;17.70;10.73;;;;;;;10.09;100.00;98658.78;5040766;28;20021;-63
2023/02/22 00:15:55;;;;;;;17.77;11.05;;;;;;;10.11;100.00;98651.66;5045087;28;20047;-64
2023/02/22 00:18:21;;;;;;;19.02;12.18;;;;;;;10.17;100.00;98653.72;5047516;28;20121;-63
2023/02/22 00:20:46;;;;;;;16.33;11.00;;;;;;;10.13;100.00;98653.16;5067113;28;20028;-63
2023/02/22 00:23:15;;;;;;;18.10;11.23;;;;;;;10.09;100.00;98650.97;5031828;28;20543;-64
2023/02/22 00:25:40;;;;;;;19.92;13.02;;;;;;;10.05;100.00;98654.81;5042422;28;20028;-64
2023/02/22 00:28:06;;;;;;;18.45;11.05;;;;;;;10.00;100.00;98656.06;5051169;28;20469;-64
2023/02/22 00:30:32;;;;;;;19.42;11.35;;;;;;;10.08;100.00;98657.16;5043329;28;20032;-63
2023/02/22 00:32:58;;;;;;;17.83;10.55;;;;;;;10.05;100.00;98640.03;5040186;28;20029;-63
2023/02/22 00:35:27;;;;;;;14.57;9.98;;;;;;;9.74;100.00;98587.50;5040284;28;20035;-63
2023/02/22 00:37:57;;;;;;;13.30;8.93;;;;;;;9.81;100.00;98598.97;5045782;28;20033;-63
2023/02/22 00:40:26;;;;;;;15.75;9.27;;;;;;;9.73;100.00;98594.47;5035477;28;20526;-63
2023/02/22 00:42:51;;;;;;;22.70;13.48;;;;;;;10.00;100.00;98650.03;5029588;28;20036;-64
2023/02/22 00:45:22;;;;;;;24.95;14.30;;;;;;;9.67;100.00;98630.53;5010254;28;20044;-64
2023/02/22 00:47:47;;;;;;;22.08;13.38;;;;;;;9.67;100.00;98646.94;5048239;28;20029;-63
2023/02/22 00:50:14;;;;;;;22.55;13.85;;;;;;;9.59;100.00;98647.63;5032385;28;20036;-63
2023/02/22 00:52:40;;;;;;;19.48;13.35;;;;;;;9.58;100.00;98640.81;5047245;28;20039;-64
2023/02/22 00:55:07;;;;;;;22.48;13.02;;;;;;;9.12;100.00;98582.63;5029540;28;20500;-64
2023/02/22 00:57:33;;;;;;;23.58;14.77;;;;;;;9.56;100.00;98641.88;5030478;28;20033;-63
2023/02/22 01:00:12;;;;;;;25.48;14.38;;;;;;;9.61;100.00;98631.91;5034748;28;20069;-64
2023/02/22 01:02:41;;;;;;;21.30;13.00;;;;;;;9.63;100.00;98630.81;5046221;28;20032;-64
2023/02/22 01:05:11;;;;;;;20.35;12.60;;;;;;;9.59;100.00;98623.44;5061674;28;20028;-64
2023/02/22 01:07:37;;;;;;;20.35;13.02;;;;;;;9.57;100.00;98626.19;5046477;28;20074;-63
2023/02/22 01:10:03;;;;;;;18.10;12.77;;;;;;;9.76;100.00;98627.94;5053444;28;20090;-64
2023/02/22 01:12:29;;;;;;;22.85;13.75;;;;;;;9.55;100.00;98609.13;5041881;28;20024;-64
2023/02/22 01:14:58;;;;;;;21.15;13.95;;;;;;;9.60;100.00;98618.13;5047372;28;20127;-65
2023/02/22 01:17:24;;;;;;;20.95;12.75;;;;;;;9.39;100.00;98583.72;5036747;28;20036;-64
2023/02/22 01:19:50;;;;;;;20.80;13.10;;;;;;;9.71;100.00;98630.16;5050731;28;20040;-64
2023/02/22 01:22:16;;;;;;;21.95;13.40;;;;;;;9.69;100.00;98633.81;5037936;28;20055;-63
2023/02/22 01:24:41;;;;;;;19.08;13.00;;;;;;;9.74;100.00;98634.22;5010000;28;20030;-64
2023/02/22 01:27:07;;;;;;;21.80;13.63;;;;;;;9.67;100.00;98625.34;5042191;28;20040;-64
2023/02/22 01:29:49;;;;;;;21.63;13.63;;;;;;;9.68;100.00;98630.41;5042578;28;20028;-63
2023/02/22 01:32:14;;;;;;;22.48;12.55;;;;;;;9.66;100.00;98621.94;5027850;28;20079;-63
2023/02/22 01:34:41;;;;;;;24.85;14.40;;;;;;;9.66;100.00;98621.94;5028872;28;20585;-64
2023/02/22 01:37:06;;;;;;;24.35;14.45;;;;;;;9.73;100.00;98620.44;5011119;28;20104;-63
2023/02/22 01:39:32;;;;;;;22.30;13.90;;;;;;;9.65;100.00;98619.47;5028272;28;20132;-63
2023/02/22 01:41:57;;;;;;;25.15;14.93;;;;;;;9.68;100.00;98619.22;5044589;28;20052;-63
2023/02/22 01:44:36;;;;;;;21.20;13.60;;;;;;;9.45;100.00;98582.34;5028244;28;20517;-63
2023/02/22 01:47:03;;;;;;;23.83;13.65;;;;;;;9.65;100.00;98620.28;5021137;28;20868;-64
2023/02/22 01:49:33;;;;;;;20.33;13.95;;;;;;;9.28;100.00;98552.72;5047210;28;20037;-63
2023/02/22 01:52:02;;;;;;;22.33;13.48;;;;;;;9.27;100.00;98554.47;5011997;28;20052;-64
2023/02/22 01:54:46;;;;;;;21.20;13.57;;;;;;;9.35;100.00;98561.59;5028387;28;20107;-64
2023/02/22 01:57:21;;;;;;;24.05;14.43;;;;;;;9.69;100.00;98610.44;5018476;28;20029;-63
2023/02/22 01:59:50;;;;;;;21.27;14.80;;;;;;;9.69;100.00;98606.09;5038964;28;20146;-63
2023/02/22 02:02:17;;;;;;;23.83;14.15;;;;;;;9.62;100.00;98600.63;5044232;28;20040;-63
2023/02/22 02:04:44;;;;;;;23.42;14.45;;;;;;;9.61;100.00;98600.78;5021055;28;20040;-64
2023/02/22 02:07:12;;;;;;;23.70;15.57;;;;;;;9.61;100.00;98595.56;5024454;28;20032;-64
2023/02/22 02:09:43;;;;;;;24.08;14.90;;;;;;;9.53;100.00;98598.06;5025958;28;20033;-64
2023/02/22 02:12:11;;;;;;;21.63;14.60;;;;;;;9.53;100.00;98595.47;5023835;28;20033;-63
2023/02/22 02:14:39;;;;;;;26.63;15.40;;;;;;;9.46;100.00;98597.78;5024824;28;20174;-64
2023/02/22 02:17:09;;;;;;;27.10;15.35;;;;;;;9.47;100.00;98590.81;5018508;28;20030;-64
2023/02/22 02:19:54;;;;;;;25.33;16.42;;;;;;;9.43;100.00;98595.44;5021411;28;21848;-63
2023/02/22 02:22:35;;;;;;;22.13;14.68;;;;;;;9.38;100.00;98592.44;5010021;28;20776;-63
2023/02/22 02:25:16;;;;;;;24.90;15.93;;;;;;;9.46;100.00;98592.59;5027006;28;20033;-63
2023/02/22 02:28:17;;;;;;;26.77;16.35;;;;;;;9.49;100.00;98589.72;5040727;28;20032;-64
2023/02/22 02:31:15;;;;;;;24.75;14.73;;;;;;;9.48;100.00;98590.66;4908865;29;20531;-64
2023/02/22 02:33:51;;;;;;;24.85;14.93;;;;;;;9.51;100.00;98592.16;5040529;28;20819;-63
2023/02/22 02:36:52;;;;;;;23.58;15.63;;;;;;;9.46;100.00;98576.22;5025394;28;20025;-63
2023/02/22 02:39:41;;;;;;;22.60;14.95;;;;;;;9.54;100.00;98591.91;5019508;28;20533;-63
2023/02/22 02:42:10;;;;;;;25.48;14.90;;;;;;;9.41;100.00;98572.22;4998097;28;20045;-63
2023/02/22 02:44:49;;;;;;;25.90;15.38;;;;;;;9.31;100.00;98540.28;5021151;28;20029;-63
2023/02/22 02:47:21;;;;;;;22.83;14.52;;;;;;;9.17;100.00;98515.59;5015604;28;20068;-64
2023/02/22 02:49:50;;;;;;;26.75;16.33;;;;;;;9.58;100.00;98581.09;5027548;28;20043;-63
2023/02/22 02:52:18;;;;;;;23.92;15.60;;;;;;;9.53;100.00;98566.91;5024959;28;20119;-63
2023/02/22 02:54:45;;;;;;;24.50;15.18;;;;;;;9.57;100.00;98563.06;5010011;28;20036;-63
2023/02/22 02:57:10;;;;;;;22.20;13.88;;;;;;;9.49;100.00;98561.19;5026960;28;20103;-63
2023/02/22 02:59:37;;;;;;;24.05;15.10;;;;;;;9.45;100.00;98553.78;5020464;28;20119;-64
2023/02/22 03:02:12;;;;;;;26.17;15.68;;;;;;;9.42;100.00;98563.50;5029752;28;20090;-63
2023/02/22 03:04:58;;;;;;;22.95;15.18;;;;;;;9.34;100.00;98555.56;5024712;28;20035;-63
2023/02/22 03:07:54;;;;;;;24.65;15.45;;;;;;;9.28;100.00;98556.13;5044108;28;20021;-63
2023/02/22 03:10:36;;;;;;;26.73;16.50;;;;;;;8.72;100.00;98487.59;5023127;28;20044;-63
2023/02/22 03:13:01;;;;;;;25.55;15.98;;;;;;;9.05;100.00;98558.19;5037374;28;20029;-64
2023/02/22 03:15:33;;;;;;;25.45;16.40;;;;;;;8.94;100.00;98551.34;5043707;28;20044;-63
2023/02/22 03:18:21;;;;;;;26.35;16.88;;;;;;;8.86;100.00;98551.22;5033696;28;20029;-61
2023/02/22 03:21:05;;;;;;;26.20;16.65;;;;;;;8.90;100.00;98549.16;5024592;28;20111;-63
2023/02/22 03:23:38;;;;;;;24.63;16.25;;;;;;;8.91;100.00;98546.44;5062739;28;20048;-63
2023/02/22 03:26:08;;;;;;;27.13;16.85;;;;;;;8.99;100.00;98545.75;5033507;28;20036;-63
2023/02/22 03:28:38;;;;;;;26.30;16.13;;;;;;;8.85;100.00;98518.44;5050239;28;20082;-63
2023/02/22 03:31:12;;;;;;;27.10;16.27;;;;;;;8.99;100.00;98548.34;5051496;28;20036;-63
2023/02/22 03:33:44;;;;;;;24.48;15.98;;;;;;;9.00;100.00;98550.81;5050729;28;20452;-65
2023/02/22 03:36:21;;;;;;;26.95;15.45;;;;;;;8.69;100.00;98515.56;5051113;28;20025;-63
2023/02/22 03:38:47;;;;;;;23.85;16.20;;;;;;;8.91;100.00;98548.19;5033787;28;20032;-63
2023/02/22 03:41:15;;;;;;;25.85;16.10;;;;;;;8.38;100.00;98490.56;5051794;28;20495;-63
2023/02/22 03:43:43;;;;;;;27.38;16.08;;;;;;;8.61;100.00;98524.84;5050744;28;20029;-62
2023/02/22 03:46:09;;;;;;;26.45;15.98;;;;;;;8.65;100.00;98533.16;5034284;28;20029;-62
2023/02/22 03:48:44;;;;;;;26.58;16.73;;;;;;;8.76;100.00;98545.19;5050922;28;20024;-62
2023/02/22 03:51:13;;;;;;;26.95;16.45;;;;;;;8.79;100.00;98556.09;5051982;28;20029;-62
2023/02/22 03:53:40;;;;;;;30.85;18.95;;;;;;;8.81;100.00;98550.78;5050353;28;20496;-63
2023/02/22 03:56:09;;;;;;;26.75;18.02;;;;;;;8.90;100.00;98556.94;5050618;28;20104;-62
2023/02/22 03:58:35;;;;;;;27.23;17.23;;;;;;;8.93;100.00;98549.72;5033768;28;20033;-63
2023/02/22 04:01:02;;;;;;;29.88;18.33;;;;;;;8.88;100.00;98554.50;5033812;28;20029;-62
2023/02/22 04:03:27;;;;;;;29.77;19.17;;;;;;;8.87;100.00;98555.47;5050358;28;20113;-62
2023/02/22 04:05:53;;;;;;;28.98;19.13;;;;;;;8.88;100.00;98559.69;5050232;28;20151;-62
2023/02/22 04:08:18;;;;;;;29.58;19.58;;;;;;;8.82;100.00;98553.25;5051498;28;20074;-63
2023/02/22 04:10:44;;;;;;;32.42;19.85;;;;;;;8.50;100.00;98495.66;5053432;28;20570;-62
2023/02/22 04:13:09;;;;;;;30.92;20.55;;;;;;;8.61;100.00;98513.66;5071596;28;20029;-62
2023/02/22 04:15:35;;;;;;;29.73;19.63;;;;;;;8.91;100.00;98551.63;5071628;28;20116;-63
2023/02/22 04:18:00;;;;;;;32.55;20.85;;;;;;;8.92;100.00;98550.66;5053867;28;20093;-62
2023/02/22 04:20:25;;;;;;;30.58;20.65;;;;;;;8.96;100.00;98552.06;5053478;28;20098;-62
2023/02/22 04:22:52;;;;;;;29.80;20.23;;;;;;;8.96;100.00;98549.47;5053300;28;20555;-62
2023/02/22 04:25:18;;;;;;;29.77;19.77;;;;;;;8.89;100.00;98556.16;5042368;28;21316;-63
2023/02/22 04:27:43;;;;;;;29.48;20.05;;;;;;;8.84;100.00;98555.72;5046426;28;20048;-63
2023/02/22 04:30:09;;;;;;;33.20;20.17;;;;;;;8.63;100.00;98535.91;5036769;28;20033;-63
2023/02/22 04:32:35;;;;;;;31.02;20.52;;;;;;;8.81;100.00;98555.97;5023723;28;20500;-64
2023/02/22 04:35:00;;;;;;;32.20;21.30;;;;;;;8.83;100.00;98548.88;5042798;28;20025;-63
2023/02/22 04:37:26;;;;;;;31.83;20.70;;;;;;;8.91;100.00;98554.22;5037650;28;20055;-63
2023/02/22 04:39:51;;;;;;;29.10;20.13;;;;;;;8.89;100.00;98544.94;5040081;28;20059;-62
2023/02/22 04:42:16;;;;;;;31.23;20.10;;;;;;;8.94;100.00;98548.75;5027269;28;20048;-63
2023/02/22 04:44:42;;;;;;;29.50;20.20;;;;;;;8.98;100.00;98550.13;5036542;28;20028;-63
2023/02/22 04:47:07;;;;;;;31.88;20.95;;;;;;;9.02;100.00;98548.91;5050007;28;20029;-62
2023/02/22 04:49:33;;;;;;;29.65;21.40;;;;;;;9.00;100.00;98550.00;5074376;28;20020;-62
2023/02/22 04:51:58;;;;;;;29.98;20.30;;;;;;;8.99;100.00;98543.97;5074559;28;20055;-63
2023/02/22 04:54:23;;;;;;;30.73;19.75;;;;;;;8.97;100.00;98540.72;5074397;28;20039;-63
2023/02/22 04:56:49;;;;;;;31.88;19.73;;;;;;;8.99;100.00;98543.97;5056643;28;20033;-64
2023/02/22 04:59:14;;;;;;;31.33;19.35;;;;;;;9.08;100.00;98546.72;5039916;28;20027;-63
2023/02/22 05:01:40;;;;;;;27.30;19.23;;;;;;;8.68;100.00;98480.25;5055281;28;20060;-63
2023/02/22 05:04:06;;;;;;;29.35;19.35;;;;;;;9.04;100.00;98541.81;5029873;28;20024;-63
2023/02/22 05:06:32;;;;;;;34.53;20.17;;;;;;;9.08;100.00;98544.13;5036928;28;20111;-63
2023/02/22 05:08:57;;;;;;;27.92;19.92;;;;;;;9.10;100.00;98553.41;5051332;28;20070;-65
2023/02/22 05:11:23;;;;;;;31.92;18.98;;;;;;;9.09;100.00;98549.19;5048952;28;20021;-64
2023/02/22 05:13:48;;;;;;;34.90;20.55;;;;;;;9.05;100.00;98553.00;5021387;28;20032;-63
2023/02/22 05:16:14;;;;;;;29.60;18.70;;;;;;;8.81;100.00;98512.72;5045554;28;20667;-63
2023/02/22 05:18:40;;;;;;;32.45;19.85;;;;;;;8.98;100.00;98552.72;5039774;28;20029;-64
2023/02/22 05:21:05;;;;;;;27.90;18.83;;;;;;;8.64;100.00;98503.03;5040116;28;20124;-64
2023/02/22 05:23:31;;;;;;;27.70;18.83;;;;;;;8.89;100.00;98560.47;5046690;28;20055;-63
2023/02/22 05:25:57;;;;;;;30.25;19.30;;;;;;;8.91;100.00;98556.81;5040627;28;20135;-63
2023/02/22 05:28:23;;;;;;;27.70;19.08;;;;;;;8.72;100.00;98539.44;5048169;28;20049;-64
2023/02/22 05:30:49;;;;;;;31.55;20.45;;;;;;;8.73;100.00;98546.28;5020683;28;20025;-63
2023/02/22 05:33:14;;;;;;;30.45;20.20;;;;;;;8.52;100.00;98512.69;5046189;28;20054;-64
2023/02/22 05:35:39;;;;;;;31.02;20.20;;;;;;;8.77;100.00;98565.81;5055003;28;20025;-64
2023/02/22 05:38:05;;;;;;;33.42;21.38;;;;;;;8.78;100.00;98553.66;5040857;28;20029;-64
2023/02/22 05:40:31;;;;;;;28.85;20.33;;;;;;;8.74;100.00;98554.88;5039342;28;20055;-63
2023/02/22 05:42:57;;;;;;;30.27;21.30;;;;;;;8.57;100.00;98517.47;5039362;28;20413;-63
2023/02/22 05:45:25;;;;;;;30.30;20.70;;;;;;;8.81;100.00;98550.78;5044379;28;20425;-63
2023/02/22 05:47:52;;;;;;;35.80;21.95;;;;;;;8.50;100.00;98501.63;5045623;28;20721;-63
2023/02/22 05:50:18;;;;;;;32.63;21.23;;;;;;;8.78;100.00;98553.66;5044014;28;20017;-63
2023/02/22 05:52:44;;;;;;;29.73;20.77;;;;;;;8.84;100.00;98558.31;5044026;28;20021;-63
2023/02/22 05:55:11;;;;;;;33.95;22.17;;;;;;;8.60;100.00;98514.63;5045960;28;20034;-63
2023/02/22 05:57:36;;;;;;;31.15;19.88;;;;;;;8.81;100.00;98554.19;5047758;28;20489;-63
2023/02/22 06:00:05;;;;;;;32.50;20.70;;;;;;;8.43;100.00;98503.97;5062403;28;20120;-64
2023/02/22 06:02:31;;;;;;;27.88;19.77;;;;;;;8.55;100.00;98546.13;5037640;28;20032;-64
2023/02/22 06:04:56;;;;;;;29.73;19.15;;;;;;;8.33;100.00;98504.88;5042082;28;20074;-63
2023/02/22 06:07:22;;;;;;;33.90;20.92;;;;;;;8.61;100.00;98542.97;5025630;28;20036;-64
2023/02/22 06:09:47;;;;;;;29.90;18.90;;;;;;;8.50;100.00;98548.28;5055658;28;20055;-63
2023/02/22 06:12:13;;;;;;;27.70;19.40;;;;;;;8.40;100.00;98561.19;5035880;28;20036;-63
2023/02/22 06:14:39;;;;;;;30.48;19.45;;;;;;;8.35;100.00;98545.22;5045967;28;20024;-64
2023/02/22 06:17:05;;;;;;;29.02;20.15;;;;;;;8.37;100.00;98545.91;5029897;28;20687;-64
2023/02/22 06:19:31;;;;;;;30.83;21.20;;;;;;;8.30;100.00;98555.16;5063434;28;20035;-62
2023/02/22 06:21:58;;;;;;;28.95;20.90;;;;;;;8.38;100.00;98562.28;5033475;28;20047;-63
2023/02/22 06:24:24;;;;;;;34.17;21.35;;;;;;;8.33;100.00;98565.25;5036904;28;20039;-63
2023/02/22 06:26:55;;;;;;;32.75;20.92;;;;;;;8.39;100.00;98563.91;5026547;28;20049;-63
2023/02/22 06:29:21;;;;;;;34.42;20.73;;;;;;;8.48;100.00;98567.53;5026461;28;20123;-63
2023/02/22 06:31:47;;;;;;;31.17;20.25;;;;;;;8.33;100.00;98531.59;5030812;28;20020;-63
2023/02/22 06:34:12;;;;;;;30.60;20.73;;;;;;;8.53;100.00;98571.34;5045584;28;20040;-62
2023/02/22 06:36:37;;;;;;;31.27;21.30;;;;;;;8.48;100.00;98575.28;5063832;28;20024;-63
2023/02/22 06:39:03;;;;;;;30.95;20.98;;;;;;;8.40;100.00;98570.75;5026679;28;20028;-63
2023/02/22 06:41:28;;;;;;;29.98;20.98;;;;;;;8.10;100.00;98523.19;5037431;28;20075;-63
2023/02/22 06:43:54;;;;;;;31.10;20.90;;;;;;;8.09;100.00;98524.97;5035042;28;20093;-63
2023/02/22 06:46:20;;;;;;;32.55;20.83;;;;;;;8.32;100.00;98584.34;5061413;28;20056;-63
2023/02/22 06:48:46;;;;;;;32.50;22.17;;;;;;;8.26;100.00;98569.31;5022346;28;20034;-64
2023/02/22 06:51:11;;;;;;;35.58;21.73;;;;;;;8.37;100.00;98591.72;5052065;28;20032;-64
2023/02/22 06:53:36;;;;;;;31.15;19.80;;;;;;;8.38;100.00;98593.38;5056303;28;20036;-63
2023/02/22 06:56:02;;;;;;;30.48;20.30;;;;;;;8.41;100.00;98593.09;5056134;28;20200;-64
2023/02/22 06:58:28;;;;;;;32.10;19.77;;;;;;;8.46;100.00;98590.97;5024892;28;20032;-63
2023/02/22 07:00:53;;;;;;;30.27;20.35;;;;;;;8.45;100.00;98586.72;5039210;28;20104;-63
2023/02/22 07:03:19;;;;;;;29.65;19.67;;;;;;;8.47;100.00;98592.63;5021171;28;20364;-63
2023/02/22 07:05:44;;;;;;;32.05;18.98;;;;;;;8.21;100.00;98550.75;5023957;28;20029;-63
2023/02/22 07:08:11;;;;;;;31.13;20.23;;;;;;;8.52;100.00;98593.03;5060238;28;20052;-63
2023/02/22 07:10:37;;;;;;;29.55;19.05;;;;;;;8.58;100.00;98596.84;5032324;28;20036;-63
2023/02/22 07:13:04;;;;;;;28.95;19.55;;;;;;;8.35;100.00;98560.75;5026634;28;20512;-62
2023/02/22 07:15:31;;;;;;;32.20;19.55;;;;;;;8.60;100.00;98592.38;5038874;28;20040;-64
2023/02/22 07:17:57;;;;;;;32.25;20.33;;;;;;;8.41;100.00;98593.91;5065243;28;20469;-63
2023/02/22 07:20:23;;;;;;;30.30;19.20;;;;;;;8.54;100.00;98598.91;5040755;28;20509;-64
2023/02/22 07:22:49;;;;;;;29.70;20.77;;;;;;;8.25;100.00;98541.75;5017916;28;20045;-62
2023/02/22 07:25:14;;;;;;;29.10;19.05;;;;;;;8.33;100.00;98547.13;5042031;28;20886;-63
2023/02/22 07:27:41;;;;;;;30.13;20.10;;;;;;;8.66;100.00;98592.66;5040911;28;20530;-64
2023/02/22 07:30:18;;;;;;;31.30;19.58;;;;;;;8.72;100.00;98596.47;5059927;28;20036;-64
2023/02/22 07:32:45;;;;;;;30.02;20.30;;;;;;;8.68;100.00;98591.72;5038957;28;20363;-62
2023/02/22 07:35:19;;;;;;;31.13;20.08;;;;;;;8.69;100.00;98591.59;5061833;28;20027;-63
2023/02/22 07:37:46;;;;;;;36.58;24.40;;;;;;;8.75;100.00;98587.63;5038022;28;20052;-64
2023/02/22 07:40:12;;;;;;;43.75;25.52;;;;;;;8.78;100.00;98598.56;5025825;28;20454;-64
2023/02/22 07:42:53;;;;;;;41.75;25.52;;;;;;;8.82;100.00;98601.72;5052006;28;20098;-65
2023/02/22 07:45:18;;;;;;;41.88;26.95;;;;;;;8.86;100.00;98595.28;5046596;28;20056;-63
2023/02/22 07:47:46;;;;;;;43.63;26.50;;;;;;;8.49;100.00;98538.88;5037513;28;20067;-64
2023/02/22 07:50:13;;;;;;;44.38;27.70;;;;;;;8.92;100.00;98601.72;5035025;28;20025;-63
2023/02/22 07:52:38;;;;;;;46.45;28.10;;;;;;;8.82;100.00;98581.78;5023660;28;20128;-64
2023/02/22 07:55:05;;;;;;;44.75;28.23;;;;;;;8.92;100.00;98597.34;5035251;28;20040;-63
2023/02/22 07:57:31;;;;;;;47.85;28.17;;;;;;;9.03;100.00;98604.19;5054949;28;20133;-64
2023/02/22 07:59:56;;;;;;;37.83;24.58;;;;;;;8.87;100.00;98573.63;5051451;28;20021;-64
2023/02/22 08:02:24;;;;;;;34.72;22.27;;;;;;;9.03;100.00;98599.00;5032232;28;20033;-64
2023/02/22 08:04:49;;;;;;;41.35;26.20;;;;;;;8.55;100.00;98532.34;5039548;28;20095;-63
2023/02/22 08:07:15;;;;;;;44.53;26.58;;;;;;;8.90;100.00;98595.84;5033666;28;20056;-64
2023/02/22 08:09:40;;;;;;;40.03;25.63;;;;;;;8.84;100.00;98590.25;5037530;28;20528;-64
2023/02/22 08:12:05;;;;;;;39.15;26.27;;;;;;;8.49;100.00;98533.72;5018250;28;20032;-64
2023/02/22 08:14:31;;;;;;;34.10;21.73;;;;;;;8.64;100.00;98604.94;5040855;28;20127;-64
2023/02/22 08:16:56;;;;;;;34.30;21.30;;;;;;;8.24;100.00;98540.16;5056896;28;20458;-65
2023/02/22 08:19:22;;;;;;;32.33;21.02;;;;;;;8.52;100.00;98594.81;5059260;28;20783;-64
2023/02/22 08:21:47;;;;;;;36.53;20.60;;;;;;;8.45;100.00;98595.34;5037048;28;20029;-63
2023/02/22 08:24:12;;;;;;;34.58;21.17;;;;;;;8.24;100.00;98546.13;5039143;28;20028;-63
2023/02/22 08:26:44;;;;;;;31.75;21.15;;;;;;;8.51;100.00;98601.75;5035321;28;20086;-63
2023/02/22 08:29:09;;;;;;;30.20;20.63;;;;;;;8.47;100.00;98584.84;5038929;28;20032;-64
2023/02/22 08:31:35;;;;;;;33.90;22.20;;;;;;;8.54;100.00;98593.75;5024679;28;20417;-64
2023/02/22 08:34:00;;;;;;;32.80;20.73;;;;;;;8.62;100.00;98590.47;5042998;28;20036;-64
2023/02/22 08:36:26;;;;;;;33.78;20.55;;;;;;;8.55;100.00;98573.81;5046601;28;20032;-63
2023/02/22 08:38:51;;;;;;;33.83;21.95;;;;;;;8.61;100.00;98584.44;5046152;28;20067;-63
2023/02/22 08:41:16;;;;;;;34.90;21.80;;;;;;;8.73;100.00;98584.38;5042141;28;20044;-64
2023/02/22 08:43:42;;;;;;;33.85;22.13;;;;;;;8.62;100.00;98572.34;5027812;28;20033;-63
2023/02/22 08:46:08;;;;;;;33.40;21.45;;;;;;;8.69;100.00;98582.97;5022731;28;20075;-64
2023/02/22 08:48:33;;;;;;;33.78;22.75;;;;;;;8.72;100.00;98578.34;5067904;28;20024;-64
2023/02/22 08:50:58;;;;;;;32.72;22.38;;;;;;;8.52;100.00;98533.41;5043573;28;20162;-63
2023/02/22 08:53:24;;;;;;;34.95;22.45;;;;;;;8.57;100.00;98527.84;5039527;28;20120;-63
2023/02/22 08:55:49;;;;;;;35.97;22.30;;;;;;;8.91;100.00;98577.56;5040198;28;20093;-64
2023/02/22 08:58:15;;;;;;;37.95;22.65;;;;;;;8.87;100.00;98576.19;5060457;28;20029;-64
2023/02/22 09:00:43;;;;;;;33.38;22.00;;;;;;;8.86;100.00;98577.16;5043032;28;20024;-63
2023/02/22 09:03:12;;;;;;;35.90;22.40;;;;;;;8.98;100.00;98577.81;5024613;28;20024;-63
2023/02/22 09:05:37;;;;;;;35.92;22.77;;;;;;;9.10;100.00;98588.91;5028967;28;20119;-64
2023/02/22 09:08:04;;;;;;;37.30;22.75;;;;;;;9.15;100.00;98584.13;5057483;28;20120;-63
2023/02/22 09:10:31;;;;;;;36.45;23.00;;;;;;;8.81;100.00;98532.66;5035951;28;20040;-63
2023/02/22 09:12:59;;;;;;;39.10;24.98;;;;;;;8.77;100.00;98526.91;5042986;28;20086;-62
2023/02/22 09:15:26;;;;;;;34.60;23.42;;;;;;;9.06;100.00;98580.56;5040881;28;20044;-64
2023/02/22 09:17:52;;;;;;;35.50;23.83;;;;;;;8.92;100.00;98571.41;5035906;28;20028;-64
2023/02/22 09:20:21;;;;;;;37.28;23.60;;;;;;;8.92;100.00;98570.59;5024515;28;20056;-64
2023/02/22 09:22:47;;;;;;;33.75;22.40;;;;;;;8.92;100.00;98575.78;5051887;28;20037;-63
2023/02/22 09:25:13;;;;;;;36.35;23.00;;;;;;;8.94;100.00;98569.50;5027740;28;20108;-63
2023/02/22 09:27:39;;;;;;;34.65;22.58;;;;;;;8.95;100.00;98565.97;5038612;28;20063;-62
2023/02/22 09:30:05;;;;;;;34.00;22.13;;;;;;;8.98;100.00;98565.69;5024736;28;20056;-63
2023/02/22 09:32:31;;;;;;;34.53;23.33;;;;;;;9.11;100.00;98573.22;5023480;28;20037;-64
2023/02/22 09:34:56;;;;;;;38.33;24.88;;;;;;;9.11;100.00;98568.03;5040655;28;20025;-64
2023/02/22 09:37:22;;;;;;;33.70;21.30;;;;;;;9.01;100.00;98573.19;5038913;28;20067;-64
2023/02/22 09:39:47;;;;;;;32.70;22.67;;;;;;;9.08;100.00;98570.88;5028986;28;20036;-63
2023/02/22 09:42:20;;;;;;;33.35;22.83;;;;;;;8.90;100.00;98565.53;5055230;28;20048;-64
2023/02/22 09:45:05;;;;;;;34.65;23.10;;;;;;;8.98;100.00;98563.09;5026272;28;20511;-63
2023/02/22 09:48:01;;;;;;;36.50;23.15;;;;;;;9.10;100.00;98566.38;5033265;28;20550;-62
2023/02/22 09:50:34;;;;;;;36.40;22.95;;;;;;;8.96;100.00;98549.47;5018219;28;20036;-62
2023/02/22 09:53:11;;;;;;;36.10;22.98;;;;;;;8.91;100.00;98564.59;5035069;28;20033;-62
2023/02/22 09:55:40;;;;;;;34.63;21.85;;;;;;;8.95;100.00;98575.53;5025211;28;20414;-61
2023/02/22 09:58:32;;;;;;;37.05;22.27;;;;;;;8.95;100.00;98558.19;5036124;28;20032;-62
2023/02/22 10:01:13;;;;;;;41.10;22.67;;;;;;;8.86;100.00;98527.88;5028502;28;20492;-61
2023/02/22 10:03:49;;;;;;;34.38;21.83;;;;;;;8.71;100.00;98511.09;5028184;28;20163;-62
2023/02/22 10:06:20;;;;;;;38.97;23.17;;;;;;;8.90;100.00;98544.78;5037477;28;20032;-62
2023/02/22 10:08:45;;;;;;;36.22;22.77;;;;;;;9.03;100.00;98555.75;5035175;28;20056;-62
2023/02/22 10:11:43;;;;;;;36.78;22.85;;;;;;;9.08;100.00;98549.31;5037445;28;20047;-62
2023/02/22 10:14:37;;;;;;;37.22;23.63;;;;;;;9.18;100.00;98550.97;5035183;28;20492;-63
2023/02/22 10:17:09;;;;;;;40.50;23.42;;;;;;;9.14;100.00;98551.34;5036531;28;20052;-62
2023/02/22 10:20:12;;;;;;;38.65;23.83;;;;;;;9.24;100.00;98547.00;5029522;28;20077;-61
2023/02/22 10:22:42;;;;;;;35.58;23.45;;;;;;;9.22;100.00;98549.72;5004168;28;20048;-62
2023/02/22 10:25:19;;;;;;;36.28;23.30;;;;;;;9.30;100.00;98551.63;5036317;28;20389;-63
2023/02/22 10:27:57;;;;;;;38.60;22.20;;;;;;;9.37;100.00;98555.31;5010366;28;20024;-62
2023/02/22 10:30:23;;;;;;;35.00;23.33;;;;;;;9.18;100.00;98534.56;5037431;28;20028;-62
2023/02/22 10:32:57;;;;;;;36.97;23.85;;;;;;;9.03;100.00;98485.72;5026786;28;20703;-62
2023/02/22 10:35:26;;;;;;;37.63;23.02;;;;;;;9.44;100.00;98534.81;5036355;28;20121;-62
2023/02/22 10:38:19;;;;;;;37.40;23.57;;;;;;;9.42;100.00;98529.75;5011718;28;20117;-62
2023/02/22 10:41:00;;;;;;;37.00;22.50;;;;;;;9.28;100.00;98482.69;5018470;28;20288;-62
2023/02/22 10:43:25;;;;;;;35.58;22.80;;;;;;;9.50;100.00;98512.69;5027473;28;20021;-62
2023/02/22 10:46:00;;;;;;;35.50;23.55;;;;;;;9.46;100.00;98529.50;5019894;28;20040;-63
2023/02/22 10:48:25;;;;;;;34.47;22.88;;;;;;;9.47;100.00;98505.97;5052835;28;20536;-62
2023/02/22 10:50:53;;;;;;;38.75;22.75;;;;;;;9.58;100.00;98524.00;5020062;28;20032;-62
2023/02/22 10:53:19;;;;;;;39.53;23.58;;;;;;;9.63;100.00;98518.38;5009230;28;20041;-63
2023/02/22 10:56:12;;;;;;;34.95;22.17;;;;;;;9.72;100.00;98514.94;5021306;28;20024;-62
2023/02/22 10:58:58;;;;;;;35.30;22.05;;;;;;;9.41;100.00;98439.88;5000160;28;20263;-63
2023/02/22 11:01:30;;;;;;;36.53;22.02;;;;;;;9.84;100.00;98497.41;5035716;28;20056;-62
2023/02/22 11:04:14;;;;;;;36.13;22.98;;;;;;;9.94;100.00;98499.97;5054595;28;20566;-63
2023/02/22 11:06:43;;;;;;;35.60;21.65;;;;;;;9.85;100.00;98483.44;5037051;28;20036;-61
2023/02/22 11:09:11;;;;;;;35.88;21.58;;;;;;;9.59;100.00;98437.34;5036298;28;20159;-62
2023/02/22 11:11:44;;;;;;;33.40;22.17;;;;;;;9.87;100.00;98484.13;5042681;28;20024;-62
2023/02/22 11:14:11;;;;;;;35.53;22.23;;;;;;;9.74;100.00;98483.63;5037215;28;20778;-63
2023/02/22 11:16:50;;;;;;;37.00;22.85;;;;;;;9.70;100.00;98483.09;5034313;28;20056;-63
2023/02/22 11:19:27;;;;;;;32.10;20.60;;;;;;;9.74;100.00;98463.66;5026371;28;20029;-62
2023/02/22 11:21:59;;;;;;;31.88;21.80;;;;;;;9.79;100.00;98458.06;5037481;28;20039;-62
2023/02/22 11:24:26;;;;;;;35.10;22.25;;;;;;;9.99;100.00;98469.19;5013496;28;20028;-62
2023/02/22 11:26:58;;;;;;;36.80;22.17;;;;;;;9.98;100.00;98451.94;5041619;28;20033;-63